KLM550 HKEL-HKJK
Flight info
| Callsign | KLM550 |
|---|---|
| Flight time | 0h 26m |
| Altitude | 19000 |
| Route | KIDUM1Y KIDUM DCT IBKAS IBKAS1A |
| Aircraft | B744/H-SDE3FGHIM1M2RWXY/LB1 |
Departure
| Time | 2026-04-18 04:53 |
|---|---|
| Airport | Eldoret International Airport (HKEL) |
Arrival
| Time | 2026-04-18 05:19 |
|---|---|
| Airport | Jomo Kenyatta International Airport (HKJK) |
| Time | Latitude | Longitude | Altitude | Speed | Heading |
|---|---|---|---|---|---|
| 2026-04-18 04:33 | 0.40425 | 35.22401 | 6954 ft | 0 kts | 346° |
| 2026-04-18 04:44 | 0.40421 | 35.22402 | 6954 ft | 2 kts | 346° |
| 2026-04-18 04:45 | 0.40419 | 35.22402 | 6954 ft | 2 kts | 342° |
| 2026-04-18 04:45 | 0.40403 | 35.22408 | 6954 ft | 3 kts | 317° |
| 2026-04-18 04:45 | 0.40394 | 35.22419 | 6954 ft | 3 kts | 283° |
| 2026-04-18 04:45 | 0.40392 | 35.22436 | 6954 ft | 3 kts | 261° |
| 2026-04-18 04:46 | 0.40396 | 35.22455 | 6954 ft | 2 kts | 255° |
| 2026-04-18 04:46 | 0.40398 | 35.22464 | 6954 ft | 0 kts | 255° |
| 2026-04-18 04:48 | 0.40394 | 35.22450 | 6954 ft | 7 kts | 255° |
| 2026-04-18 04:48 | 0.40381 | 35.22398 | 6954 ft | 7 kts | 255° |
| 2026-04-18 04:48 | 0.40368 | 35.22349 | 6954 ft | 7 kts | 255° |
| 2026-04-18 04:49 | 0.40357 | 35.22302 | 6954 ft | 7 kts | 256° |
| 2026-04-18 04:49 | 0.40349 | 35.22271 | 6954 ft | 7 kts | 256° |
| 2026-04-18 04:49 | 0.40335 | 35.22212 | 6954 ft | 6 kts | 257° |
| 2026-04-18 04:49 | 0.40319 | 35.22171 | 6954 ft | 6 kts | 229° |
| 2026-04-18 04:50 | 0.40282 | 35.22150 | 6954 ft | 6 kts | 205° |
| 2026-04-18 04:50 | 0.40244 | 35.22132 | 6954 ft | 6 kts | 204° |
| 2026-04-18 04:50 | 0.40218 | 35.22122 | 6954 ft | 6 kts | 195° |
| 2026-04-18 04:50 | 0.40167 | 35.22130 | 6954 ft | 6 kts | 160° |
| 2026-04-18 04:51 | 0.40145 | 35.22141 | 6954 ft | 5 kts | 148° |
| 2026-04-18 04:51 | 0.40117 | 35.22165 | 6954 ft | 5 kts | 133° |
| 2026-04-18 04:51 | 0.40108 | 35.22198 | 6954 ft | 5 kts | 79° |
| 2026-04-18 04:51 | 0.40111 | 35.22208 | 6954 ft | 0 kts | 77° |
| 2026-04-18 04:52 | 0.40129 | 35.22289 | 6954 ft | 38 kts | 76° |
| 2026-04-18 04:52 | 0.40252 | 35.22792 | 6955 ft | 110 kts | 77° |
| 2026-04-18 04:52 | 0.40487 | 35.23755 | 6955 ft | 176 kts | 77° |
| 2026-04-18 04:53 | 0.40813 | 35.25050 | 7328 ft | 198 kts | 76° |
| 2026-04-18 04:53 | 0.41144 | 35.26378 | 8192 ft | 193 kts | 81° |
| 2026-04-18 04:53 | 0.41068 | 35.27689 | 8813 ft | 194 kts | 108° |
| 2026-04-18 04:53 | 0.40222 | 35.28781 | 8968 ft | 207 kts | 139° |
| 2026-04-18 04:54 | 0.38949 | 35.29479 | 9302 ft | 207 kts | 151° |
| 2026-04-18 04:54 | 0.37634 | 35.30032 | 9509 ft | 211 kts | 157° |
| 2026-04-18 04:54 | 0.36188 | 35.30532 | 9658 ft | 217 kts | 159° |
| 2026-04-18 04:54 | 0.34783 | 35.30983 | 9899 ft | 215 kts | 160° |
| 2026-04-18 04:55 | 0.33344 | 35.31450 | 9397 ft | 226 kts | 161° |
| 2026-04-18 04:55 | 0.31833 | 35.31881 | 9627 ft | 219 kts | 161° |
| 2026-04-18 04:55 | 0.30435 | 35.32316 | 10151 ft | 209 kts | 159° |
| 2026-04-18 04:56 | 0.27337 | 35.33372 | 9765 ft | 268 kts | 159° |
| 2026-04-18 04:56 | 0.25644 | 35.33930 | 10708 ft | 248 kts | 158° |
| 2026-04-18 04:56 | 0.24026 | 35.34582 | 10999 ft | 260 kts | 153° |
| 2026-04-18 04:56 | 0.22360 | 35.35405 | 11176 ft | 277 kts | 149° |
| 2026-04-18 04:57 | 0.20610 | 35.36368 | 11385 ft | 297 kts | 148° |
| 2026-04-18 04:57 | 0.18747 | 35.37440 | 11592 ft | 318 kts | 147° |
| 2026-04-18 04:57 | 0.16748 | 35.38591 | 11801 ft | 341 kts | 147° |
| 2026-04-18 04:57 | 0.14631 | 35.39801 | 11989 ft | 365 kts | 147° |
| 2026-04-18 04:58 | 0.12395 | 35.41070 | 12188 ft | 388 kts | 147° |
| 2026-04-18 04:58 | 0.09975 | 35.42438 | 12427 ft | 410 kts | 147° |
| 2026-04-18 04:58 | 0.07444 | 35.43859 | 12754 ft | 428 kts | 148° |
| 2026-04-18 04:58 | 0.04777 | 35.45362 | 13475 ft | 436 kts | 148° |
| 2026-04-18 04:59 | 0.02160 | 35.46830 | 14394 ft | 438 kts | 148° |
| 2026-04-18 04:59 | -0.00495 | 35.48318 | 15468 ft | 436 kts | 148° |
| 2026-04-18 04:59 | -0.03151 | 35.49806 | 16308 ft | 440 kts | 148° |
| 2026-04-18 04:59 | -0.05846 | 35.51319 | 16847 ft | 450 kts | 148° |
| 2026-04-18 05:00 | -0.08572 | 35.52845 | 17490 ft | 457 kts | 148° |
| 2026-04-18 05:00 | -0.11389 | 35.54417 | 18037 ft | 465 kts | 148° |
| 2026-04-18 05:00 | -0.14222 | 35.56008 | 18690 ft | 470 kts | 149° |
| 2026-04-18 05:00 | -0.17090 | 35.57618 | 19141 ft | 476 kts | 149° |
| 2026-04-18 05:01 | -0.19988 | 35.59244 | 19231 ft | 478 kts | 149° |
| 2026-04-18 05:01 | -0.22895 | 35.60876 | 19239 ft | 480 kts | 149° |
| 2026-04-18 05:01 | -0.25804 | 35.62508 | 19241 ft | 481 kts | 148° |
| 2026-04-18 05:01 | -0.28727 | 35.64136 | 19252 ft | 481 kts | 149° |
| 2026-04-18 05:02 | -0.31539 | 35.65898 | 19263 ft | 479 kts | 143° |
| 2026-04-18 05:02 | -0.34199 | 35.67922 | 19233 ft | 478 kts | 140° |
| 2026-04-18 05:02 | -0.36725 | 35.70056 | 19241 ft | 478 kts | 137° |
| 2026-04-18 05:02 | -0.39207 | 35.72258 | 19231 ft | 478 kts | 136° |
| 2026-04-18 05:03 | -0.41661 | 35.74444 | 19187 ft | 476 kts | 136° |
| 2026-04-18 05:03 | -0.44159 | 35.76646 | 19129 ft | 478 kts | 137° |
| 2026-04-18 05:03 | -0.46671 | 35.78843 | 19110 ft | 478 kts | 137° |
| 2026-04-18 05:03 | -0.49162 | 35.81012 | 19101 ft | 478 kts | 137° |
| 2026-04-18 05:04 | -0.51668 | 35.83190 | 19115 ft | 477 kts | 137° |
| 2026-04-18 05:04 | -0.54176 | 35.85372 | 19112 ft | 478 kts | 137° |
| 2026-04-18 05:04 | -0.56663 | 35.87535 | 19120 ft | 478 kts | 137° |
| 2026-04-18 05:04 | -0.59178 | 35.89718 | 19121 ft | 478 kts | 137° |
| 2026-04-18 05:05 | -0.61670 | 35.91884 | 19134 ft | 477 kts | 137° |
| 2026-04-18 05:05 | -0.64202 | 35.94081 | 19118 ft | 475 kts | 137° |
| 2026-04-18 05:05 | -0.66652 | 35.96212 | 19136 ft | 472 kts | 137° |
| 2026-04-18 05:05 | -0.69190 | 35.98412 | 19142 ft | 482 kts | 137° |
| 2026-04-18 05:06 | -0.71550 | 36.00462 | 19137 ft | 483 kts | 137° |
| 2026-04-18 05:06 | -0.74057 | 36.02646 | 19139 ft | 474 kts | 137° |
| 2026-04-18 05:06 | -0.76564 | 36.04809 | 19147 ft | 479 kts | 137° |
| 2026-04-18 05:06 | -0.79079 | 36.06995 | 19154 ft | 479 kts | 137° |
| 2026-04-18 05:07 | -0.81607 | 36.09189 | 19161 ft | 479 kts | 137° |
| 2026-04-18 05:07 | -0.84083 | 36.11338 | 19162 ft | 479 kts | 137° |
| 2026-04-18 05:07 | -0.86592 | 36.13519 | 19170 ft | 479 kts | 137° |
| 2026-04-18 05:07 | -0.89112 | 36.15709 | 19172 ft | 479 kts | 137° |
| 2026-04-18 05:08 | -0.91648 | 36.17907 | 19176 ft | 479 kts | 137° |
| 2026-04-18 05:08 | -0.94138 | 36.20077 | 19180 ft | 479 kts | 137° |
| 2026-04-18 05:08 | -0.96706 | 36.22180 | 19180 ft | 479 kts | 140° |
| 2026-04-18 05:08 | -0.99352 | 36.24222 | 19189 ft | 480 kts | 141° |
| 2026-04-18 05:09 | -1.02007 | 36.26236 | 19194 ft | 480 kts | 141° |
| 2026-04-18 05:09 | -1.04666 | 36.28266 | 19194 ft | 480 kts | 141° |
| 2026-04-18 05:09 | -1.07321 | 36.30308 | 19196 ft | 480 kts | 141° |
| 2026-04-18 05:09 | -1.09953 | 36.32341 | 19200 ft | 479 kts | 141° |
| 2026-04-18 05:10 | -1.12564 | 36.34359 | 19115 ft | 468 kts | 141° |
| 2026-04-18 05:10 | -1.15071 | 36.36298 | 18705 ft | 457 kts | 140° |
| 2026-04-18 05:10 | -1.17565 | 36.38229 | 17966 ft | 453 kts | 140° |
| 2026-04-18 05:10 | -1.20059 | 36.40157 | 17100 ft | 453 kts | 140° |
| 2026-04-18 05:11 | -1.22539 | 36.42079 | 16388 ft | 448 kts | 140° |
| 2026-04-18 05:11 | -1.24990 | 36.43975 | 15685 ft | 444 kts | 140° |
| 2026-04-18 05:11 | -1.27412 | 36.45851 | 14984 ft | 439 kts | 140° |
| 2026-04-18 05:11 | -1.29828 | 36.47720 | 14283 ft | 435 kts | 140° |
| 2026-04-18 05:12 | -1.32171 | 36.49538 | 13606 ft | 431 kts | 140° |
| 2026-04-18 05:12 | -1.34530 | 36.51366 | 12918 ft | 426 kts | 140° |
| 2026-04-18 05:12 | -1.36860 | 36.53171 | 12236 ft | 422 kts | 140° |
| 2026-04-18 05:12 | -1.39164 | 36.54952 | 11695 ft | 415 kts | 140° |
| 2026-04-18 05:13 | -1.41370 | 36.56741 | 11490 ft | 398 kts | 134° |
| 2026-04-18 05:13 | -1.43160 | 36.58767 | 11323 ft | 381 kts | 126° |
| 2026-04-18 05:13 | -1.44656 | 36.60882 | 11148 ft | 366 kts | 121° |
| 2026-04-18 05:13 | -1.45917 | 36.62998 | 10986 ft | 353 kts | 118° |
| 2026-04-18 05:14 | -1.47105 | 36.65101 | 10822 ft | 340 kts | 117° |
| 2026-04-18 05:14 | -1.47861 | 36.67252 | 10639 ft | 323 kts | 97° |
| 2026-04-18 05:14 | -1.47717 | 36.69430 | 10511 ft | 306 kts | 76° |
| 2026-04-18 05:14 | -1.47199 | 36.71441 | 10318 ft | 292 kts | 75° |
| 2026-04-18 05:15 | -1.46452 | 36.73254 | 10075 ft | 281 kts | 61° |
| 2026-04-18 05:15 | -1.45377 | 36.74894 | 9683 ft | 280 kts | 55° |
| 2026-04-18 05:15 | -1.44142 | 36.76413 | 9085 ft | 287 kts | 49° |
| 2026-04-18 05:15 | -1.42847 | 36.77906 | 8635 ft | 287 kts | 52° |
| 2026-04-18 05:16 | -1.41644 | 36.79458 | 8252 ft | 278 kts | 54° |
| 2026-04-18 05:16 | -1.40532 | 36.80989 | 7881 ft | 265 kts | 55° |
| 2026-04-18 05:16 | -1.39477 | 36.82446 | 7542 ft | 253 kts | 54° |
| 2026-04-18 05:16 | -1.38465 | 36.83835 | 7211 ft | 241 kts | 54° |
| 2026-04-18 05:17 | -1.37518 | 36.85129 | 6917 ft | 224 kts | 54° |
| 2026-04-18 05:17 | -1.36632 | 36.86340 | 6633 ft | 202 kts | 54° |
| 2026-04-18 05:17 | -1.35852 | 36.87407 | 6376 ft | 181 kts | 54° |
| 2026-04-18 05:17 | -1.35128 | 36.88397 | 6140 ft | 171 kts | 54° |
| 2026-04-18 05:18 | -1.34453 | 36.89326 | 5875 ft | 165 kts | 54° |
| 2026-04-18 05:18 | -1.33779 | 36.90252 | 5767 ft | 162 kts | 54° |
| 2026-04-18 05:18 | -1.33114 | 36.91157 | 5420 ft | 164 kts | 54° |
| 2026-04-18 05:18 | -1.32443 | 36.92076 | 5343 ft | 156 kts | 54° |
| 2026-04-18 05:19 | -1.31817 | 36.92920 | 5341 ft | 136 kts | 53° |
| 2026-04-18 05:19 | -1.31366 | 36.93542 | 5341 ft | 78 kts | 52° |
| 2026-04-18 05:19 | -1.31198 | 36.93763 | 5340 ft | 7 kts | 53° |
| 2026-04-18 05:19 | -1.31184 | 36.93803 | 5340 ft | 6 kts | 83° |
| 2026-04-18 05:20 | -1.31156 | 36.93821 | 5340 ft | 6 kts | 322° |
| 2026-04-18 05:20 | -1.31171 | 36.93790 | 5340 ft | 6 kts | 207° |
| 2026-04-18 05:20 | -1.31210 | 36.93784 | 5340 ft | 6 kts | 159° |
| 2026-04-18 05:20 | -1.31244 | 36.93806 | 5340 ft | 6 kts | 145° |
| 2026-04-18 05:21 | -1.31276 | 36.93828 | 5340 ft | 6 kts | 145° |
| 2026-04-18 05:21 | -1.31307 | 36.93849 | 5340 ft | 5 kts | 145° |
| 2026-04-18 05:21 | -1.31336 | 36.93871 | 5340 ft | 5 kts | 143° |
| 2026-04-18 05:21 | -1.31364 | 36.93891 | 5340 ft | 5 kts | 143° |
| 2026-04-18 05:22 | -1.31392 | 36.93911 | 5340 ft | 5 kts | 148° |
| 2026-04-18 05:22 | -1.31422 | 36.93912 | 5340 ft | 5 kts | 206° |
| 2026-04-18 05:22 | -1.31446 | 36.93893 | 5340 ft | 4 kts | 230° |
| 2026-04-18 05:22 | -1.31464 | 36.93869 | 5340 ft | 4 kts | 233° |
| 2026-04-18 05:23 | -1.31481 | 36.93847 | 5340 ft | 4 kts | 233° |
| 2026-04-18 05:23 | -1.31497 | 36.93825 | 5340 ft | 4 kts | 233° |
| 2026-04-18 05:23 | -1.31512 | 36.93805 | 5340 ft | 4 kts | 233° |
| 2026-04-18 05:23 | -1.31527 | 36.93786 | 5340 ft | 3 kts | 233° |
| 2026-04-18 05:24 | -1.31541 | 36.93768 | 5340 ft | 3 kts | 233° |
| 2026-04-18 05:24 | -1.31554 | 36.93751 | 5340 ft | 3 kts | 233° |
| 2026-04-18 05:24 | -1.31566 | 36.93735 | 5340 ft | 3 kts | 233° |
| 2026-04-18 05:24 | -1.31577 | 36.93719 | 5340 ft | 3 kts | 233° |
| 2026-04-18 05:25 | -1.31587 | 36.93706 | 5340 ft | 2 kts | 233° |
| 2026-04-18 05:25 | -1.31597 | 36.93693 | 5340 ft | 2 kts | 233° |
| 2026-04-18 05:25 | -1.31606 | 36.93681 | 5340 ft | 2 kts | 233° |
| 2026-04-18 05:25 | -1.31614 | 36.93670 | 5340 ft | 2 kts | 233° |